Terminal Aerodrome Forecast
Issued by NWS Sioux Falls, SD

Home | Current Version | Previous Version | Text Only | Print | Product List | Glossary On
Versions: 1 2 3 4 5 6 7 8 9 10 11 12 13 14 15 16
000
FTUS43 KFSD 281606 AAB
TAFSUX
TAF AMD
KSUX 281606Z 2816/2912 18009KT P6SM BKN025
     FM281900 21008KT P6SM SHRA VCTS BKN030CB
     FM282300 29011KT P6SM OVC035
     FM290200 30007KT P6SM BKN080
     FM290400 29005KT P6SM SCT080=

USA.gov is the U.S. government's official web portal to all federal, state and local government web resources and services.